createdAt,value
2022-10-05T00:01:07.790Z,2.9
2022-10-05T00:02:16.353Z,2.5
2022-10-05T00:03:24.715Z,2.5
2022-10-05T00:04:33.005Z,2.5
2022-10-05T00:05:41.558Z,2.9
2022-10-05T00:06:49.957Z,2.9
2022-10-05T00:07:58.234Z,2.9
2022-10-05T00:09:06.796Z,3
2022-10-05T00:10:15.135Z,3
2022-10-05T00:11:23.442Z,3
2022-10-05T00:12:32.004Z,2.9
2022-10-05T00:13:40.349Z,2.9
2022-10-05T00:14:48.666Z,2.9
2022-10-05T00:15:57.216Z,2.7
2022-10-05T00:17:05.564Z,2.7
2022-10-05T00:18:13.963Z,2.7
2022-10-05T00:19:22.441Z,2.9
2022-10-05T00:20:30.784Z,2.9
2022-10-05T00:21:39.180Z,2.9
2022-10-05T00:22:47.675Z,3.1
2022-10-05T00:23:56.016Z,3.1
2022-10-05T00:25:04.331Z,3.1
2022-10-05T00:26:12.840Z,2.8
2022-10-05T00:27:21.159Z,2.8
2022-10-05T00:28:29.486Z,2.8
2022-10-05T00:29:37.985Z,2.9
2022-10-05T00:30:46.291Z,2.9
2022-10-05T00:31:54.632Z,2.9
2022-10-05T00:33:03.127Z,3
2022-10-05T00:34:11.441Z,3
2022-10-05T00:35:19.754Z,3
2022-10-05T00:36:28.272Z,3.3
2022-10-05T00:37:36.582Z,3.3
2022-10-05T00:38:44.938Z,3.3
2022-10-05T00:39:53.409Z,3.4
2022-10-05T00:41:01.719Z,3.4
2022-10-05T00:42:10.029Z,3.4
2022-10-05T00:43:18.551Z,3.5
2022-10-05T00:44:26.851Z,3.5
2022-10-05T00:45:35.236Z,3.5
2022-10-05T00:46:44.086Z,3.3
2022-10-05T00:47:51.988Z,3.3
2022-10-05T00:49:00.301Z,3.3
2022-10-05T00:50:08.819Z,3.5
2022-10-05T00:51:17.123Z,3.5
2022-10-05T00:52:25.868Z,3.5
2022-10-05T00:53:34.399Z,3.6
2022-10-05T00:54:42.749Z,3.6
2022-10-05T00:55:51.023Z,3.6
2022-10-05T00:56:59.549Z,3.5
2022-10-05T00:58:07.853Z,3.5
2022-10-05T00:59:16.164Z,3.5
2022-10-05T01:00:24.687Z,3.6
2022-10-05T01:01:33.071Z,3.6
2022-10-05T01:02:41.364Z,3.6
2022-10-05T01:03:49.824Z,4
2022-10-05T01:04:58.130Z,4
2022-10-05T01:06:06.441Z,4
2022-10-05T01:07:14.969Z,3.6
2022-10-05T01:08:23.277Z,3.6
2022-10-05T01:09:31.596Z,3.6
2022-10-05T01:10:40.135Z,3.9
2022-10-05T01:11:48.424Z,3.9
2022-10-05T01:12:56.738Z,3.9
2022-10-05T01:14:05.254Z,4.1
2022-10-05T01:15:13.562Z,4.1
2022-10-05T01:16:21.936Z,4.1
2022-10-05T01:17:30.402Z,3.7
2022-10-05T01:18:38.708Z,3.7
2022-10-05T01:19:47.033Z,3.7
2022-10-05T01:20:55.551Z,3.7
2022-10-05T01:22:03.877Z,3.7
2022-10-05T01:23:12.176Z,3.7
2022-10-05T01:24:20.691Z,3.9
2022-10-05T01:25:29.008Z,3.9
2022-10-05T01:26:37.336Z,3.9
2022-10-05T01:27:45.847Z,3.7
2022-10-05T01:28:54.170Z,3.7
2022-10-05T01:30:02.480Z,3.7
2022-10-05T01:31:11.034Z,4.1
2022-10-05T01:32:19.321Z,4.1
2022-10-05T01:33:27.618Z,4.1
2022-10-05T01:34:36.146Z,4.5
2022-10-05T01:35:44.461Z,4.5
2022-10-05T01:36:52.770Z,4.5
2022-10-05T01:38:01.293Z,4
2022-10-05T01:39:09.613Z,4
2022-10-05T01:40:17.911Z,4
2022-10-05T01:41:26.451Z,3.8
2022-10-05T01:42:34.787Z,3.8
2022-10-05T01:43:43.071Z,3.8
2022-10-05T01:44:51.586Z,3.7
2022-10-05T01:45:59.930Z,3.7
2022-10-05T01:47:08.210Z,3.7
2022-10-05T01:48:16.733Z,4.1
2022-10-05T01:49:25.042Z,4.1
2022-10-05T01:50:33.343Z,4.1
2022-10-05T01:51:41.881Z,3.9
2022-10-05T01:52:50.183Z,3.9
2022-10-05T01:53:58.491Z,3.9
2022-10-05T01:55:07.011Z,4.4
2022-10-05T01:56:15.323Z,4.4
2022-10-05T01:57:23.637Z,4.4
2022-10-05T01:58:32.184Z,4.2
2022-10-05T01:59:40.460Z,4.2
2022-10-05T02:00:48.814Z,4.2
2022-10-05T02:01:57.330Z,3.8
2022-10-05T02:03:05.595Z,3.8
2022-10-05T02:04:25.561Z,3.8
2022-10-05T02:05:22.432Z,4.2
2022-10-05T02:06:30.737Z,4.2
2022-10-05T02:07:39.046Z,4.2
2022-10-05T02:08:47.565Z,4.2
2022-10-05T02:09:55.870Z,4.2
2022-10-05T02:11:04.193Z,4.2
2022-10-05T02:12:12.716Z,4
2022-10-05T02:13:21.009Z,4
2022-10-05T02:14:29.342Z,4
2022-10-05T02:15:37.923Z,4.2
2022-10-05T02:16:46.430Z,4.2
2022-10-05T02:17:54.489Z,4.2
2022-10-05T02:19:03.009Z,3.8
2022-10-05T02:20:11.314Z,3.8
2022-10-05T02:21:19.633Z,3.8
2022-10-05T02:22:28.155Z,4
2022-10-05T02:23:36.464Z,4
2022-10-05T02:24:44.768Z,4
2022-10-05T02:25:53.300Z,4.2
2022-10-05T02:27:01.594Z,4.2
2022-10-05T02:28:09.951Z,4.2
2022-10-05T02:29:18.422Z,4.1
2022-10-05T02:30:26.751Z,4.1
2022-10-05T02:31:35.110Z,4.1
2022-10-05T02:32:43.557Z,4.3
2022-10-05T02:33:51.864Z,4.3
2022-10-05T02:35:00.173Z,4.3
2022-10-05T02:36:08.701Z,4.1
2022-10-05T02:37:17.000Z,4.1
2022-10-05T02:38:25.308Z,4.1
2022-10-05T02:39:33.825Z,4.3
2022-10-05T02:40:42.137Z,4.3
2022-10-05T02:41:50.450Z,4.3
2022-10-05T02:42:58.969Z,4.4
2022-10-05T02:44:07.362Z,4.4
2022-10-05T02:45:15.642Z,4.4
2022-10-05T02:46:24.268Z,4.4
2022-10-05T02:47:32.542Z,4.4
2022-10-05T02:48:40.846Z,4.4
2022-10-05T02:49:49.391Z,4.3
2022-10-05T02:50:57.747Z,4.3
2022-10-05T02:52:06.053Z,4.3
2022-10-05T02:53:14.605Z,4.4
2022-10-05T02:54:22.977Z,4.4
2022-10-05T02:55:31.284Z,4.4
2022-10-05T02:56:39.836Z,4.7
2022-10-05T02:57:48.178Z,4.7
2022-10-05T02:58:56.483Z,4.7
2022-10-05T03:00:05.030Z,4.5
2022-10-05T03:01:13.436Z,4.5
2022-10-05T03:02:21.863Z,4.5
2022-10-05T03:03:30.251Z,4.6
2022-10-05T03:04:38.577Z,4.6
2022-10-05T03:05:46.940Z,4.6
2022-10-05T03:06:55.442Z,4.2
2022-10-05T03:08:03.774Z,4.2
2022-10-05T03:09:12.133Z,4.2
2022-10-05T03:10:20.629Z,4.6
2022-10-05T03:11:28.982Z,4.6
2022-10-05T03:12:37.350Z,4.6
2022-10-05T03:13:45.854Z,4.5
2022-10-05T03:14:54.213Z,4.5
2022-10-05T03:16:02.661Z,4.5
2022-10-05T03:17:11.081Z,4.4
2022-10-05T03:18:19.457Z,4.4
2022-10-05T03:19:27.786Z,4.4
2022-10-05T03:20:36.293Z,4.1
2022-10-05T03:21:44.631Z,4.1
2022-10-05T03:22:53.019Z,4.1
2022-10-05T03:24:01.508Z,4.4
2022-10-05T03:25:09.858Z,4.4
2022-10-05T03:26:18.228Z,4.4
2022-10-05T03:27:26.754Z,4.1
2022-10-05T03:28:35.102Z,4.1
2022-10-05T03:29:43.457Z,4.1
2022-10-05T03:30:52.008Z,4.5
2022-10-05T03:32:00.294Z,4.5
2022-10-05T03:33:08.662Z,4.5
2022-10-05T03:34:17.181Z,4.3
2022-10-05T03:35:25.490Z,4.3
2022-10-05T03:36:33.876Z,4.3
2022-10-05T03:37:42.339Z,5.9
2022-10-05T03:38:50.686Z,5.9
2022-10-05T03:39:59.048Z,5.9
2022-10-05T03:41:07.551Z,6.9
2022-10-05T03:42:15.890Z,6.9
2022-10-05T03:43:24.233Z,6.9
2022-10-05T03:44:32.733Z,5
2022-10-05T03:45:41.088Z,5
2022-10-05T03:46:49.778Z,5
2022-10-05T03:48:01.421Z,4.9
2022-10-05T03:49:06.291Z,4.9
2022-10-05T03:50:15.000Z,4.9
2022-10-05T03:51:23.473Z,5.3
2022-10-05T03:52:31.852Z,5.3
2022-10-05T03:53:40.209Z,5.3
2022-10-05T03:54:48.703Z,5.4
2022-10-05T03:55:57.042Z,5.4
2022-10-05T03:57:05.353Z,5.4
2022-10-05T03:58:13.868Z,5.2
2022-10-05T03:59:22.191Z,5.2
2022-10-05T04:00:30.504Z,5.2
2022-10-05T04:01:39.060Z,4.8
2022-10-05T04:02:47.371Z,4.8
2022-10-05T04:03:55.637Z,4.8
2022-10-05T04:05:04.152Z,5
2022-10-05T04:06:12.485Z,5
2022-10-05T04:07:20.764Z,5
2022-10-05T04:08:29.277Z,5.2
2022-10-05T04:09:37.597Z,5.2
2022-10-05T04:10:45.909Z,5.2
2022-10-05T04:11:54.418Z,39.299999
2022-10-05T04:13:02.732Z,39.299999
2022-10-05T04:14:11.049Z,39.299999
2022-10-05T04:15:19.570Z,6.2
2022-10-05T04:16:28.048Z,6.2
2022-10-05T04:17:36.182Z,6.2
2022-10-05T04:18:45.139Z,5.7
2022-10-05T04:19:53.284Z,5.7
2022-10-05T04:21:01.585Z,5.7
2022-10-05T04:22:10.166Z,8.1
2022-10-05T04:23:18.417Z,8.1
2022-10-05T04:24:26.729Z,8.1
2022-10-05T04:25:35.259Z,5.6
2022-10-05T04:26:43.740Z,5.6
2022-10-05T04:27:51.877Z,5.6
2022-10-05T04:29:00.396Z,12.2
2022-10-05T04:30:08.726Z,12.2
2022-10-05T04:31:17.084Z,12.2
2022-10-05T04:32:25.600Z,9.4
2022-10-05T04:33:33.947Z,9.4
2022-10-05T04:34:42.278Z,9.4
2022-10-05T04:35:50.832Z,7.2
2022-10-05T04:36:59.142Z,7.2
2022-10-05T04:38:07.496Z,7.2
2022-10-05T04:39:16.015Z,6.8
2022-10-05T04:40:24.322Z,6.8
2022-10-05T04:41:32.648Z,6.8
2022-10-05T04:42:41.186Z,6.3
2022-10-05T04:43:49.494Z,6.3
2022-10-05T04:44:59.294Z,6.3
2022-10-05T04:46:06.395Z,9.4
2022-10-05T04:47:14.678Z,9.4
2022-10-05T04:48:23.003Z,9.4
2022-10-05T04:49:31.558Z,7.3
2022-10-05T04:50:39.855Z,7.3
2022-10-05T04:51:51.100Z,7.3
2022-10-05T04:52:56.733Z,6.9
2022-10-05T04:54:05.051Z,6.9
2022-10-05T04:55:13.361Z,6.9
2022-10-05T04:56:21.898Z,6
2022-10-05T04:57:30.247Z,6
2022-10-05T04:58:42.154Z,6
2022-10-05T04:59:47.084Z,6.4
2022-10-05T05:00:55.458Z,6.4
2022-10-05T05:02:03.720Z,6.4
2022-10-05T05:03:12.270Z,5.9
2022-10-05T05:04:20.582Z,5.9
2022-10-05T05:05:28.919Z,5.9
2022-10-05T05:06:37.494Z,4.7
2022-10-05T05:07:45.799Z,4.7
2022-10-05T05:08:54.152Z,4.7
2022-10-05T05:10:02.715Z,8
2022-10-05T05:11:15.107Z,8
2022-10-05T05:12:19.341Z,8
2022-10-05T05:13:27.891Z,9.3
2022-10-05T05:14:36.211Z,9.3
2022-10-05T05:15:44.585Z,9.3
2022-10-05T05:16:53.095Z,13.3
2022-10-05T05:18:01.400Z,13.3
2022-10-05T05:19:09.748Z,13.3
2022-10-05T05:20:18.280Z,6.7
2022-10-05T05:21:26.586Z,6.7
2022-10-05T05:22:34.905Z,6.7
2022-10-05T05:23:43.463Z,6.8
2022-10-05T05:24:51.775Z,6.8
2022-10-05T05:26:00.127Z,6.8
2022-10-05T05:27:08.658Z,5.7
2022-10-05T05:28:17.050Z,5.7
2022-10-05T05:29:25.321Z,5.7
2022-10-05T05:30:33.869Z,5.6
2022-10-05T05:31:42.196Z,5.6
2022-10-05T05:32:50.504Z,5.6
2022-10-05T05:33:59.075Z,6.5
2022-10-05T05:35:07.377Z,6.5
2022-10-05T05:36:18.373Z,6.5
2022-10-05T05:37:24.248Z,6.7
2022-10-05T05:38:32.562Z,6.7
2022-10-05T05:39:40.893Z,6.7
2022-10-05T05:40:49.436Z,8.7
2022-10-05T05:41:57.764Z,8.7
2022-10-05T05:43:06.075Z,8.7
2022-10-05T05:44:14.618Z,9.8
2022-10-05T05:45:22.923Z,9.8
2022-10-05T05:46:51.520Z,9.8
2022-10-05T05:47:39.917Z,39.599998
2022-10-05T05:48:48.114Z,39.599998
2022-10-05T05:49:56.445Z,39.599998
2022-10-05T05:51:04.981Z,9.3
2022-10-05T05:52:13.291Z,9.3
2022-10-05T05:53:21.628Z,9.3
2022-10-05T05:54:30.170Z,32.200001
2022-10-05T05:55:38.473Z,32.200001
2022-10-05T05:56:47.148Z,32.200001
2022-10-05T05:57:55.375Z,78.099998
2022-10-05T05:59:03.667Z,78.099998
2022-10-05T06:00:12.002Z,78.099998
2022-10-05T06:01:32.487Z,7.1
2022-10-05T06:02:29.003Z,7.1
2022-10-05T06:03:37.200Z,7.1
2022-10-05T06:04:45.797Z,9.4
2022-10-05T06:05:54.107Z,9.4
2022-10-05T06:07:02.447Z,9.4
2022-10-05T06:08:11.014Z,26
2022-10-05T06:09:19.318Z,26
2022-10-05T06:10:27.666Z,26
2022-10-05T06:11:36.207Z,36.700001
2022-10-05T06:12:44.524Z,36.700001
2022-10-05T06:13:52.906Z,36.700001
2022-10-05T06:15:01.431Z,6.2
2022-10-05T06:16:09.778Z,6.2
2022-10-05T06:17:18.094Z,6.2
2022-10-05T06:18:26.644Z,6.4
2022-10-05T06:19:35.004Z,6.4
2022-10-05T06:20:43.283Z,6.4
2022-10-05T06:21:51.827Z,6.1
2022-10-05T06:23:00.197Z,6.1
2022-10-05T06:24:08.493Z,6.1
2022-10-05T06:25:17.046Z,5.8
2022-10-05T06:26:25.405Z,5.8
2022-10-05T06:27:33.689Z,5.8
2022-10-05T06:28:42.295Z,6.2
2022-10-05T06:29:50.602Z,6.2
2022-10-05T06:30:58.876Z,6.2
2022-10-05T06:32:07.488Z,6.4
2022-10-05T06:33:15.800Z,6.4
2022-10-05T06:34:24.088Z,6.4
2022-10-05T06:35:32.629Z,6.2
2022-10-05T06:36:40.974Z,6.2
2022-10-05T06:37:49.289Z,6.2
2022-10-05T06:38:57.838Z,6.5
2022-10-05T06:40:06.188Z,6.5
2022-10-05T06:41:14.497Z,6.5
2022-10-05T06:42:23.054Z,6.2
2022-10-05T06:43:31.394Z,6.2
2022-10-05T06:44:39.760Z,6.2
2022-10-05T06:45:48.374Z,6.2
2022-10-05T06:46:56.607Z,6.2
2022-10-05T06:48:05.611Z,6.2
2022-10-05T06:49:13.476Z,8.7
2022-10-05T06:50:21.809Z,8.7
2022-10-05T06:51:30.157Z,8.7
2022-10-05T06:52:38.675Z,6.4
2022-10-05T06:53:47.018Z,6.4
2022-10-05T06:54:55.383Z,6.4
2022-10-05T06:56:03.896Z,7.3
2022-10-05T06:57:12.237Z,7.3
2022-10-05T06:58:20.584Z,7.3
2022-10-05T06:59:29.097Z,5.8
2022-10-05T07:00:37.444Z,5.8
2022-10-05T07:01:46.158Z,5.8
2022-10-05T07:02:54.309Z,6.5
2022-10-05T07:04:02.650Z,6.5
2022-10-05T07:05:10.982Z,6.5
2022-10-05T07:06:19.493Z,29.5
2022-10-05T07:07:27.840Z,29.5
2022-10-05T07:08:36.222Z,29.5
2022-10-05T07:09:44.735Z,11.9
2022-10-05T07:10:53.082Z,11.9
2022-10-05T07:12:05.037Z,11.9
2022-10-05T07:13:09.981Z,44.700001
2022-10-05T07:14:18.302Z,44.700001
2022-10-05T07:15:26.652Z,44.700001
2022-10-05T07:16:35.227Z,11.5
2022-10-05T07:17:43.561Z,11.5
2022-10-05T07:18:51.881Z,11.5
2022-10-05T07:20:00.390Z,7.8
2022-10-05T07:21:08.751Z,7.8
2022-10-05T07:22:17.110Z,7.8
2022-10-05T07:23:25.625Z,6.7
2022-10-05T07:24:33.979Z,6.7
2022-10-05T07:25:42.329Z,6.7
2022-10-05T07:26:51.013Z,7.8
2022-10-05T07:27:59.281Z,7.8
2022-10-05T07:29:07.581Z,7.8
2022-10-05T07:30:16.132Z,6.1
2022-10-05T07:31:24.476Z,6.1
2022-10-05T07:32:32.801Z,6.1
2022-10-05T07:33:41.392Z,6.9
2022-10-05T07:34:49.674Z,6.9
2022-10-05T07:35:58.030Z,6.9
2022-10-05T07:37:06.620Z,5.9
2022-10-05T07:38:14.893Z,5.9
2022-10-05T07:39:23.543Z,5.9
2022-10-05T07:40:31.857Z,6.9
2022-10-05T07:41:40.134Z,6.9
2022-10-05T07:42:51.979Z,6.9
2022-10-05T07:44:02.283Z,6.3
2022-10-05T07:45:05.361Z,6.3
2022-10-05T07:46:13.767Z,6.3
2022-10-05T07:47:22.330Z,5.7
2022-10-05T07:48:30.615Z,5.7
2022-10-05T07:49:39.070Z,5.7
2022-10-05T07:50:47.593Z,9
2022-10-05T07:51:55.873Z,9
2022-10-05T07:53:04.246Z,9
2022-10-05T07:54:12.842Z,6.8
2022-10-05T07:55:21.121Z,6.8
2022-10-05T07:56:29.492Z,6.8
2022-10-05T07:57:38.047Z,7.2
2022-10-05T07:58:46.365Z,7.2
2022-10-05T07:59:54.729Z,7.2
2022-10-05T08:01:03.276Z,6.3
2022-10-05T08:02:11.761Z,6.3
2022-10-05T08:03:20.037Z,6.3
2022-10-05T08:04:28.569Z,7
2022-10-05T08:05:36.901Z,7
2022-10-05T08:06:45.529Z,7
2022-10-05T08:07:53.822Z,6.4
2022-10-05T08:09:02.216Z,6.4
2022-10-05T08:10:10.502Z,6.4
2022-10-05T08:11:19.072Z,5.7
2022-10-05T08:12:27.459Z,5.7
2022-10-05T08:13:35.742Z,5.7
2022-10-05T08:14:44.336Z,5.5
2022-10-05T08:15:52.732Z,5.5
2022-10-05T08:17:00.990Z,5.5
2022-10-05T08:18:09.519Z,5.6
2022-10-05T08:19:17.837Z,5.6
2022-10-05T08:20:26.143Z,5.6
2022-10-05T08:21:34.712Z,5.3
2022-10-05T08:22:43.002Z,5.3
2022-10-05T08:23:51.324Z,5.3
2022-10-05T08:24:59.852Z,6.1
2022-10-05T08:26:08.179Z,6.1
2022-10-05T08:27:16.488Z,6.1
2022-10-05T08:28:25.074Z,5.6
2022-10-05T08:29:33.351Z,5.6
2022-10-05T08:30:41.668Z,5.6
2022-10-05T08:31:50.753Z,6.1
2022-10-05T08:32:58.531Z,6.1
2022-10-05T08:34:06.851Z,6.1
2022-10-05T08:35:15.400Z,6.1
2022-10-05T08:36:23.729Z,6.1
2022-10-05T08:37:32.068Z,6.1
2022-10-05T08:38:40.581Z,5.5
2022-10-05T08:39:48.909Z,5.5
2022-10-05T08:40:57.221Z,5.5
2022-10-05T08:42:05.775Z,5.6
2022-10-05T08:43:14.104Z,5.6
2022-10-05T08:44:22.412Z,5.6
2022-10-05T08:45:30.961Z,6.3
2022-10-05T08:46:39.354Z,6.3
2022-10-05T08:47:47.620Z,6.3
2022-10-05T08:48:56.160Z,6.1
2022-10-05T08:50:04.547Z,6.1
2022-10-05T08:51:12.804Z,6.1
2022-10-05T08:52:21.353Z,5.4
2022-10-05T08:53:29.771Z,5.4
2022-10-05T08:54:38.048Z,5.4
2022-10-05T08:55:46.568Z,5.6
2022-10-05T08:56:54.899Z,5.6
2022-10-05T08:58:03.236Z,5.6
2022-10-05T08:59:11.761Z,5.3
2022-10-05T09:00:20.111Z,5.3
2022-10-05T09:01:28.488Z,5.3
2022-10-05T09:02:37.038Z,4.8
2022-10-05T09:03:45.354Z,4.8
2022-10-05T09:04:53.701Z,4.8
2022-10-05T09:06:02.215Z,4.7
2022-10-05T09:07:10.570Z,4.7
2022-10-05T09:08:18.911Z,4.7
2022-10-05T09:09:27.451Z,4.3
2022-10-05T09:10:35.788Z,4.3
2022-10-05T09:11:44.440Z,4.3
2022-10-05T09:12:52.676Z,4.2
2022-10-05T09:14:01.015Z,4.2
2022-10-05T09:15:24.681Z,4.2
2022-10-05T09:16:17.978Z,3.8
2022-10-05T09:17:26.231Z,3.8
2022-10-05T09:18:34.584Z,3.8
2022-10-05T09:19:43.096Z,3.9
2022-10-05T09:20:51.441Z,3.9
2022-10-05T09:21:59.808Z,3.9
2022-10-05T09:23:08.327Z,4.1
2022-10-05T09:24:16.670Z,4.1
2022-10-05T09:25:25.055Z,4.1
2022-10-05T09:26:33.560Z,3.6
2022-10-05T09:27:42.702Z,3.6
2022-10-05T09:28:51.055Z,3.6
2022-10-05T09:29:59.564Z,3.3
2022-10-05T09:31:07.992Z,3.3
2022-10-05T09:32:16.659Z,3.3
2022-10-05T09:33:24.789Z,3.3
2022-10-05T09:34:33.234Z,3.3
2022-10-05T09:35:41.651Z,3.3
2022-10-05T09:36:50.155Z,3.3
2022-10-05T09:37:58.495Z,3.3
2022-10-05T09:39:06.869Z,3.3
2022-10-05T09:40:15.406Z,3.5
2022-10-05T09:41:23.787Z,3.5
2022-10-05T09:42:32.156Z,3.5
2022-10-05T09:43:40.631Z,2.8
2022-10-05T09:44:49.008Z,2.8
2022-10-05T09:45:57.400Z,2.8
2022-10-05T09:47:05.907Z,3.3
2022-10-05T09:48:14.267Z,3.3
2022-10-05T09:49:22.649Z,3.3
2022-10-05T09:50:31.182Z,3.5
2022-10-05T09:51:39.566Z,3.5
2022-10-05T09:52:47.933Z,3.5
2022-10-05T09:53:56.451Z,3.4
2022-10-05T09:55:04.814Z,3.4
2022-10-05T09:56:13.193Z,3.4
2022-10-05T09:57:21.754Z,3.4
2022-10-05T09:58:30.072Z,3.4
2022-10-05T09:59:38.433Z,3.4
2022-10-05T10:00:50.084Z,3.5
2022-10-05T10:01:55.364Z,3.5
2022-10-05T10:03:03.744Z,3.5
2022-10-05T10:04:12.199Z,3.1
2022-10-05T10:05:20.557Z,3.1
2022-10-05T10:06:28.943Z,3.1
2022-10-05T10:07:37.509Z,2.9
2022-10-05T10:08:45.823Z,2.9
2022-10-05T10:09:54.175Z,2.9
2022-10-05T10:11:02.705Z,2.8
2022-10-05T10:12:11.075Z,2.8
2022-10-05T10:13:19.443Z,2.8
2022-10-05T10:14:27.957Z,3
2022-10-05T10:15:36.333Z,3
2022-10-05T10:16:44.698Z,3
2022-10-05T10:17:53.240Z,3.1
2022-10-05T10:19:01.594Z,3.1
2022-10-05T10:20:09.997Z,3.1
2022-10-05T10:21:18.505Z,3.1
2022-10-05T10:22:26.856Z,3.1
2022-10-05T10:23:35.188Z,3.1
2022-10-05T10:24:43.778Z,3
2022-10-05T10:25:52.109Z,3
2022-10-05T10:27:00.493Z,3
2022-10-05T10:28:09.116Z,3
2022-10-05T10:29:17.480Z,3
2022-10-05T10:30:27.395Z,3
2022-10-05T10:31:34.491Z,2.9
2022-10-05T10:32:42.774Z,2.9
2022-10-05T10:33:51.184Z,2.9
2022-10-05T10:34:59.832Z,2.9
2022-10-05T10:36:08.121Z,2.9
2022-10-05T10:37:16.553Z,2.9
2022-10-05T10:38:25.134Z,2.9
2022-10-05T10:39:33.496Z,2.9
2022-10-05T10:40:41.956Z,2.9
2022-10-05T10:41:50.586Z,3.4
2022-10-05T10:42:58.994Z,3.4
2022-10-05T10:44:07.418Z,3.4
2022-10-05T10:45:16.078Z,2.6
2022-10-05T10:46:24.518Z,2.6
2022-10-05T10:47:32.921Z,2.6
2022-10-05T10:48:41.558Z,2.6
2022-10-05T10:49:49.986Z,2.6
2022-10-05T10:50:58.488Z,2.6
2022-10-05T10:52:07.182Z,2.7
2022-10-05T10:53:15.577Z,2.7
2022-10-05T10:54:24.105Z,2.7
2022-10-05T10:55:32.803Z,3
2022-10-05T10:56:41.213Z,3
2022-10-05T10:57:49.816Z,3
2022-10-05T10:58:58.522Z,3.1
2022-10-05T11:00:07.022Z,3.1
2022-10-05T11:01:15.595Z,3.1
2022-10-05T11:02:24.385Z,2.8
2022-10-05T11:03:32.795Z,2.8
2022-10-05T11:04:41.342Z,2.8
2022-10-05T11:05:49.962Z,2.9
2022-10-05T11:06:58.472Z,2.9
2022-10-05T11:08:07.004Z,2.9
2022-10-05T11:09:15.696Z,2.8
2022-10-05T11:10:24.275Z,2.8
2022-10-05T11:11:32.940Z,2.8
2022-10-05T11:12:41.534Z,2.8
2022-10-05T11:13:50.070Z,2.8
2022-10-05T11:14:58.524Z,2.8
2022-10-05T11:17:15.934Z,3.3
2022-10-05T11:18:24.286Z,3.3
2022-10-05T11:19:39.854Z,3.2
2022-10-05T11:20:41.727Z,3.2
2022-10-05T11:21:50.005Z,3.2
2022-10-05T11:22:58.831Z,3
2022-10-05T11:24:07.444Z,3
2022-10-05T11:25:15.856Z,3
2022-10-05T11:26:24.573Z,3.7
2022-10-05T11:27:33.156Z,3.7
2022-10-05T11:28:41.618Z,3.7
2022-10-05T11:29:50.263Z,3.2
2022-10-05T11:30:58.716Z,3.2
2022-10-05T11:32:07.262Z,3.2
2022-10-05T11:33:16.145Z,3.3
2022-10-05T11:34:24.391Z,3.3
2022-10-05T11:35:33.006Z,3.3
2022-10-05T11:36:41.630Z,3.1
2022-10-05T11:37:50.087Z,3.1
2022-10-05T11:38:58.588Z,3.1
2022-10-05T11:40:07.199Z,3.1
2022-10-05T11:41:15.845Z,3.1
2022-10-05T11:42:24.466Z,3.1
2022-10-05T11:43:32.979Z,2.7
2022-10-05T11:44:41.579Z,2.7
2022-10-05T11:45:49.945Z,2.7
2022-10-05T11:46:58.623Z,3.2
2022-10-05T11:48:06.990Z,3.2
2022-10-05T11:49:15.507Z,3.2
2022-10-05T11:50:24.278Z,2.9
2022-10-05T11:51:32.673Z,2.9
2022-10-05T11:52:41.093Z,2.9
2022-10-05T11:53:49.716Z,3.2
2022-10-05T11:55:10.187Z,3.2
2022-10-05T11:56:06.587Z,3.2
2022-10-05T11:57:15.220Z,2.6
2022-10-05T11:58:23.696Z,2.6
2022-10-05T11:59:32.132Z,2.6
2022-10-05T12:00:40.807Z,2.4
2022-10-05T12:01:49.287Z,2.4
2022-10-05T12:02:57.819Z,2.4
2022-10-05T12:04:06.520Z,2.3
2022-10-05T12:05:14.982Z,2.3
2022-10-05T12:06:23.439Z,2.3
2022-10-05T12:07:32.155Z,2.6
2022-10-05T12:08:40.599Z,2.6
2022-10-05T12:09:49.130Z,2.6
2022-10-05T12:10:57.781Z,2.7
2022-10-05T12:12:06.243Z,2.7
2022-10-05T12:13:14.726Z,2.7
2022-10-05T12:14:23.432Z,2.8
2022-10-05T12:15:31.926Z,2.8
2022-10-05T12:16:40.420Z,2.8
2022-10-05T12:17:49.175Z,2.4
2022-10-05T12:18:57.594Z,2.4
2022-10-05T12:20:06.130Z,2.4
2022-10-05T12:21:14.863Z,2.7
2022-10-05T12:22:23.333Z,2.7
2022-10-05T12:23:31.856Z,2.7
2022-10-05T12:24:40.615Z,2.9
2022-10-05T12:25:49.101Z,2.9
2022-10-05T12:26:57.566Z,2.9
2022-10-05T12:28:06.345Z,2.2
2022-10-05T12:29:14.779Z,2.2
2022-10-05T12:30:23.254Z,2.2
2022-10-05T12:31:32.017Z,2.4
2022-10-05T12:32:40.465Z,2.4
2022-10-05T12:33:48.985Z,2.4
2022-10-05T12:35:01.562Z,2.2
2022-10-05T12:36:06.198Z,2.2
2022-10-05T12:37:14.688Z,2.2
2022-10-05T12:38:23.399Z,1.9
2022-10-05T12:39:31.877Z,1.9
2022-10-05T12:40:40.312Z,1.9
2022-10-05T12:41:48.843Z,2.4
2022-10-05T12:42:57.160Z,2.4
2022-10-05T12:44:05.475Z,2.4
2022-10-05T12:45:14.005Z,2.2
2022-10-05T12:46:22.351Z,2.2
2022-10-05T12:47:30.657Z,2.2
2022-10-05T12:48:39.188Z,2.2
2022-10-05T12:49:47.494Z,2.2
2022-10-05T12:50:55.807Z,2.2
2022-10-05T12:52:04.337Z,2.5
2022-10-05T12:53:12.676Z,2.5
2022-10-05T12:54:20.985Z,2.5
2022-10-05T12:55:29.509Z,2.5
2022-10-05T12:56:37.833Z,2.5
2022-10-05T12:57:46.147Z,2.5
2022-10-05T12:58:54.804Z,2.9
2022-10-05T13:00:03.092Z,2.9
2022-10-05T13:01:11.474Z,2.9
2022-10-05T13:02:20.001Z,2.5
2022-10-05T13:03:28.266Z,2.5
2022-10-05T13:04:36.671Z,2.5
2022-10-05T13:05:45.161Z,3
2022-10-05T13:06:53.538Z,3
2022-10-05T13:08:01.851Z,3
2022-10-05T13:09:10.402Z,2.9
2022-10-05T13:10:18.700Z,2.9
2022-10-05T13:11:27.024Z,2.9
2022-10-05T13:12:35.548Z,3.1
2022-10-05T13:13:43.872Z,3.1
2022-10-05T13:14:52.182Z,3.1
2022-10-05T13:16:00.743Z,2.8
2022-10-05T13:17:09.032Z,2.8
2022-10-05T13:18:18.170Z,2.8
2022-10-05T13:19:25.877Z,3.3
2022-10-05T13:20:34.221Z,3.3
2022-10-05T13:21:42.534Z,3.3
2022-10-05T13:22:51.061Z,3.4
2022-10-05T13:23:59.373Z,3.4
2022-10-05T13:25:07.725Z,3.4
2022-10-05T13:26:16.483Z,3.2
2022-10-05T13:27:24.577Z,3.2
2022-10-05T13:28:32.935Z,3.2
2022-10-05T13:29:41.417Z,2.9
2022-10-05T13:30:49.748Z,2.9
2022-10-05T13:31:58.069Z,2.9
2022-10-05T13:33:06.586Z,3.3
2022-10-05T13:34:14.922Z,3.3
2022-10-05T13:35:23.245Z,3.3
2022-10-05T13:36:31.774Z,3.3
2022-10-05T13:37:40.103Z,3.3
2022-10-05T13:38:48.404Z,3.3
2022-10-05T13:39:56.937Z,3.6
2022-10-05T13:41:05.287Z,3.6
2022-10-05T13:42:13.634Z,3.6
2022-10-05T13:43:22.181Z,3.8
2022-10-05T13:44:30.500Z,3.8
2022-10-05T13:45:38.859Z,3.8
2022-10-05T13:46:47.345Z,3.7
2022-10-05T13:47:55.659Z,3.7
2022-10-05T13:49:03.972Z,3.7
2022-10-05T13:50:12.498Z,3.3
2022-10-05T13:51:20.822Z,3.3
2022-10-05T13:52:29.137Z,3.3
2022-10-05T13:53:37.664Z,3.7
2022-10-05T13:54:45.990Z,3.7
2022-10-05T13:55:54.304Z,3.7
2022-10-05T13:57:02.858Z,3.6
2022-10-05T13:58:11.143Z,3.6
2022-10-05T13:59:19.497Z,3.6
2022-10-05T14:00:28.032Z,4.1
2022-10-05T14:01:36.342Z,4.1
2022-10-05T14:02:44.665Z,4.1
2022-10-05T14:03:53.857Z,4.4
2022-10-05T14:05:02.181Z,4.4
2022-10-05T14:06:10.566Z,4.4
2022-10-05T14:07:19.096Z,3.4
2022-10-05T14:08:27.427Z,3.4
2022-10-05T14:09:35.757Z,3.4
2022-10-05T14:10:44.285Z,4.1
2022-10-05T14:11:52.678Z,4.1
2022-10-05T14:13:01.108Z,4.1
2022-10-05T14:14:09.913Z,4.2
2022-10-05T14:15:26.982Z,4.2
2022-10-05T14:16:35.380Z,4.2
2022-10-05T14:17:43.856Z,4
2022-10-05T14:18:52.167Z,4
2022-10-05T14:20:00.500Z,4
2022-10-05T14:21:09.030Z,3.7
2022-10-05T14:22:17.345Z,3.7
2022-10-05T14:23:25.650Z,3.7
2022-10-05T14:24:45.865Z,3.9
2022-10-05T14:25:42.506Z,3.9
2022-10-05T14:26:50.839Z,3.9
2022-10-05T14:27:59.427Z,3.7
2022-10-05T14:29:07.707Z,3.7
2022-10-05T14:30:16.022Z,3.7
2022-10-05T15:03:19.034Z,0
2022-10-05T15:04:27.311Z,0
2022-10-05T15:05:35.626Z,0
2022-10-05T15:06:44.159Z,3.9
2022-10-05T15:07:52.478Z,3.9
2022-10-05T15:09:00.805Z,3.9
2022-10-05T15:10:09.325Z,3.8
2022-10-05T15:11:17.651Z,3.8
2022-10-05T15:12:25.965Z,3.8
2022-10-05T15:13:34.522Z,4.6
2022-10-05T15:14:42.846Z,4.6
2022-10-05T15:15:51.154Z,4.6
2022-10-05T15:16:59.773Z,3.5
2022-10-05T15:18:07.996Z,3.5
2022-10-05T15:19:16.407Z,3.5
2022-10-05T15:20:24.865Z,6.2
2022-10-05T15:21:33.194Z,6.2
2022-10-05T15:22:41.545Z,6.2
2022-10-05T15:23:50.100Z,6.2
2022-10-05T15:24:58.403Z,6.2
2022-10-05T15:26:06.721Z,6.2
2022-10-05T15:27:15.247Z,6
2022-10-05T15:28:23.613Z,6
2022-10-05T15:29:31.880Z,6
2022-10-05T15:30:40.431Z,5
2022-10-05T15:31:48.730Z,5
2022-10-05T15:32:57.045Z,5
2022-10-05T15:34:05.662Z,4.5
2022-10-05T15:35:14.067Z,4.5
2022-10-05T15:36:22.301Z,4.5
2022-10-05T15:37:30.826Z,5.5
2022-10-05T15:38:39.163Z,5.5
2022-10-05T15:39:47.476Z,5.5
2022-10-05T15:40:56.003Z,5.2
2022-10-05T15:42:04.336Z,5.2
2022-10-05T15:43:12.681Z,5.2
2022-10-05T15:44:21.217Z,4.1
2022-10-05T15:45:29.545Z,4.1
2022-10-05T15:46:37.929Z,4.1
2022-10-05T15:47:46.438Z,4.5
2022-10-05T15:48:54.779Z,4.5
2022-10-05T15:50:03.137Z,4.5
2022-10-05T15:51:11.691Z,4.4
2022-10-05T15:52:19.993Z,4.4
2022-10-05T15:53:28.338Z,4.4
2022-10-05T15:54:36.867Z,4
2022-10-05T15:55:45.198Z,4
2022-10-05T15:56:53.532Z,4
2022-10-05T15:58:02.069Z,3.7
2022-10-05T15:59:13.135Z,3.7
2022-10-05T16:00:18.732Z,3.7
2022-10-05T16:01:27.295Z,3.6
2022-10-05T16:02:35.668Z,3.6
2022-10-05T16:03:43.985Z,3.6
2022-10-05T16:04:52.527Z,4.4
2022-10-05T16:06:00.918Z,4.4
2022-10-05T16:07:09.274Z,4.4
2022-10-05T16:08:17.826Z,3.5
2022-10-05T16:09:26.145Z,3.5
2022-10-05T16:10:34.456Z,3.5
2022-10-05T16:11:43.032Z,3.4
2022-10-05T16:12:51.348Z,3.4
2022-10-05T16:13:59.665Z,3.4
2022-10-05T16:15:08.200Z,4
2022-10-05T16:16:17.534Z,4